Winthrop, WA (98862)

6:29 AM PDT on March 25, 2017 (GMT -0700)
Lower Studhorse | | Change Station

Elev 2103 ft 48.48 °N, 120.17 °W | Updated 5 seconds ago

Partly Cloudy
Partly Cloudy
33.8 °F
Feels Like 34 °F
N
0.2
Wind Variable Wind from North
Gusts 2.5 mph

Today
High -- | Low -- °F
--% Chance of Precip.
Yesterday
High -- | Low -- °F
Precip. -- in
Pressure 29.99 in
Visibility 9.0 miles
Clouds Few 100 ft
Scattered Clouds 1700 ft
Windchill 34 °F
Dew Point 32 °F
Humidity 92%
Rainfall 0.00 in
Snow Depth Not available.
6:52 AM 7:21 PM
Waning Crescent, 8% visible
SPECI KOMK 251302Z AUTO 11003KT 9SM FEW001 SCT017 01/M01 A2999 RMK AO2 T00111011
Pressure 29.99 in
Visibility 9.0 miles
Clouds Few 100 ft
Scattered Clouds 1700 ft
Windchill 34 °F
Dew Point 32 °F
Humidity 92%
Rainfall 0.00 in
Snow Depth Not available.
6:52 AM 7:21 PM
Waning Crescent, 8% visible
SPECI KOMK 251302Z AUTO 11003KT 9SM FEW001 SCT017 01/M01 A2999 RMK AO2 T00111011

Get Severe Weather Alerts

Thanks for signing up!

Be on the lookout for a verification email in your inbox.

You'll start receiving the daily forecast at 8 AM.

×

10-Day Weather Forecast

Almanac

Astronomy

Mar. 25, 2017 Rise Set
Actual Time
Civil Twilight
Nautical Twilight
Astronomical Twilight
Moon
Length of Visible Light
Length of Day
Tomorrow will be .
, % of the Moon is Illuminated

Today's Extremes

State Highs State Lows

Community

WunderPhotos

Upload Photos

1,962,540 photos uploaded!

WunderBlog® & News

Nearby

Air Quality

  Air Quality AQ Index Pollutant
Not available.

Snow Depth

Station Depth Elevation

Earthquake Activity

City Distance Mag. Time & Date
Minimum magnitude displayed is 2.5.

Earthquake Activity

City Distance Mag. Time & Date
Minimum magnitude displayed is 2.5.

Coastal Water Temperatures

Place Temperature

Stations

Nearby Weather Stations

Station Location Temp. Windchill Dew Point Humidity Wind Precip. Elev Updated Type
                   

Watches & Warnings

There are currently no watches in effect.